sensor_id;sensor_type;location;lat;lon;timestamp;temperature;humidity
11573;DHT22;5842;52.426;4.886;2022-08-19T00:01:30;16.50;99.90
11573;DHT22;5842;52.426;4.886;2022-08-19T00:03:57;16.50;99.90
11573;DHT22;5842;52.426;4.886;2022-08-19T00:06:25;16.60;99.90
11573;DHT22;5842;52.426;4.886;2022-08-19T00:08:54;16.60;99.90
11573;DHT22;5842;52.426;4.886;2022-08-19T00:11:22;16.60;99.90
11573;DHT22;5842;52.426;4.886;2022-08-19T00:13:53;16.60;99.90
11573;DHT22;5842;52.426;4.886;2022-08-19T00:16:20;16.60;99.90
11573;DHT22;5842;52.426;4.886;2022-08-19T00:18:48;16.60;99.90
11573;DHT22;5842;52.426;4.886;2022-08-19T00:21:15;16.60;99.90
11573;DHT22;5842;52.426;4.886;2022-08-19T00:23:43;16.60;99.90
11573;DHT22;5842;52.426;4.886;2022-08-19T00:26:12;16.60;99.90
11573;DHT22;5842;52.426;4.886;2022-08-19T00:28:39;16.50;99.90
11573;DHT22;5842;52.426;4.886;2022-08-19T00:31:07;16.60;99.90
11573;DHT22;5842;52.426;4.886;2022-08-19T00:33:35;16.60;99.90
11573;DHT22;5842;52.426;4.886;2022-08-19T00:36:04;16.50;99.90
11573;DHT22;5842;52.426;4.886;2022-08-19T00:38:33;16.50;99.90
11573;DHT22;5842;52.426;4.886;2022-08-19T00:41:00;16.40;99.90
11573;DHT22;5842;52.426;4.886;2022-08-19T00:43:29;16.40;99.90
11573;DHT22;5842;52.426;4.886;2022-08-19T00:45:56;16.40;99.90
11573;DHT22;5842;52.426;4.886;2022-08-19T00:48:23;16.30;99.90
11573;DHT22;5842;52.426;4.886;2022-08-19T00:50:52;16.30;99.90
11573;DHT22;5842;52.426;4.886;2022-08-19T00:53:24;16.30;99.90
11573;DHT22;5842;52.426;4.886;2022-08-19T00:55:56;16.20;99.90
11573;DHT22;5842;52.426;4.886;2022-08-19T00:58:27;16.20;99.90
11573;DHT22;5842;52.426;4.886;2022-08-19T01:00:56;16.20;99.90
11573;DHT22;5842;52.426;4.886;2022-08-19T01:03:23;16.20;99.90
11573;DHT22;5842;52.426;4.886;2022-08-19T01:05:52;16.20;99.90
11573;DHT22;5842;52.426;4.886;2022-08-19T01:08:20;16.20;99.90
11573;DHT22;5842;52.426;4.886;2022-08-19T01:10:49;16.30;99.90
11573;DHT22;5842;52.426;4.886;2022-08-19T01:13:20;16.20;99.90
11573;DHT22;5842;52.426;4.886;2022-08-19T01:15:50;16.30;99.90
11573;DHT22;5842;52.426;4.886;2022-08-19T01:18:21;16.20;99.90
11573;DHT22;5842;52.426;4.886;2022-08-19T01:20:48;16.20;99.90
11573;DHT22;5842;52.426;4.886;2022-08-19T01:23:17;16.20;99.90
11573;DHT22;5842;52.426;4.886;2022-08-19T01:25:47;16.20;99.90
11573;DHT22;5842;52.426;4.886;2022-08-19T01:28:17;16.20;99.90
11573;DHT22;5842;52.426;4.886;2022-08-19T01:30:45;16.20;99.90
11573;DHT22;5842;52.426;4.886;2022-08-19T01:33:13;16.20;99.90
11573;DHT22;5842;52.426;4.886;2022-08-19T01:35:41;16.20;99.90
11573;DHT22;5842;52.426;4.886;2022-08-19T01:38:22;16.20;99.90
11573;DHT22;5842;52.426;4.886;2022-08-19T01:40:49;16.20;99.90
11573;DHT22;5842;52.426;4.886;2022-08-19T01:43:16;16.20;99.90
11573;DHT22;5842;52.426;4.886;2022-08-19T01:45:45;16.20;99.90
11573;DHT22;5842;52.426;4.886;2022-08-19T01:48:13;16.20;99.90
11573;DHT22;5842;52.426;4.886;2022-08-19T01:50:40;16.20;99.90
11573;DHT22;5842;52.426;4.886;2022-08-19T01:53:10;16.20;99.90
11573;DHT22;5842;52.426;4.886;2022-08-19T01:55:41;16.20;99.90
11573;DHT22;5842;52.426;4.886;2022-08-19T01:58:13;16.20;99.90
11573;DHT22;5842;52.426;4.886;2022-08-19T02:00:42;16.20;99.90
11573;DHT22;5842;52.426;4.886;2022-08-19T02:03:11;16.20;99.90
11573;DHT22;5842;52.426;4.886;2022-08-19T02:05:38;16.20;99.90
11573;DHT22;5842;52.426;4.886;2022-08-19T02:08:06;16.20;99.90
11573;DHT22;5842;52.426;4.886;2022-08-19T02:10:33;16.20;99.90
11573;DHT22;5842;52.426;4.886;2022-08-19T02:13:02;16.20;99.90
11573;DHT22;5842;52.426;4.886;2022-08-19T02:15:29;16.20;99.90
11573;DHT22;5842;52.426;4.886;2022-08-19T02:17:57;16.20;99.90
11573;DHT22;5842;52.426;4.886;2022-08-19T02:20:24;16.20;99.90
11573;DHT22;5842;52.426;4.886;2022-08-19T02:22:51;16.20;99.90
11573;DHT22;5842;52.426;4.886;2022-08-19T02:25:19;16.10;99.90
11573;DHT22;5842;52.426;4.886;2022-08-19T02:27:46;16.10;99.90
11573;DHT22;5842;52.426;4.886;2022-08-19T02:30:16;16.10;99.90
11573;DHT22;5842;52.426;4.886;2022-08-19T02:32:44;16.10;99.90
11573;DHT22;5842;52.426;4.886;2022-08-19T02:35:12;16.10;99.90
11573;DHT22;5842;52.426;4.886;2022-08-19T02:37:39;16.00;99.90
11573;DHT22;5842;52.426;4.886;2022-08-19T02:40:24;16.00;99.90
11573;DHT22;5842;52.426;4.886;2022-08-19T02:42:51;16.00;99.90
11573;DHT22;5842;52.426;4.886;2022-08-19T02:45:20;16.00;99.90
11573;DHT22;5842;52.426;4.886;2022-08-19T02:47:48;16.00;99.90
11573;DHT22;5842;52.426;4.886;2022-08-19T02:50:15;16.00;99.90
11573;DHT22;5842;52.426;4.886;2022-08-19T02:52:42;16.00;99.90
11573;DHT22;5842;52.426;4.886;2022-08-19T02:55:10;16.00;99.90
11573;DHT22;5842;52.426;4.886;2022-08-19T02:57:38;16.00;99.90
11573;DHT22;5842;52.426;4.886;2022-08-19T03:00:06;16.00;99.90
11573;DHT22;5842;52.426;4.886;2022-08-19T03:02:35;16.00;99.90
11573;DHT22;5842;52.426;4.886;2022-08-19T03:05:03;16.00;99.90
11573;DHT22;5842;52.426;4.886;2022-08-19T03:07:30;16.00;99.90
11573;DHT22;5842;52.426;4.886;2022-08-19T03:09:58;16.00;99.90
11573;DHT22;5842;52.426;4.886;2022-08-19T03:12:25;16.00;99.90
11573;DHT22;5842;52.426;4.886;2022-08-19T03:14:52;16.00;99.90
11573;DHT22;5842;52.426;4.886;2022-08-19T03:17:20;16.00;99.90
11573;DHT22;5842;52.426;4.886;2022-08-19T03:19:48;16.00;99.90
11573;DHT22;5842;52.426;4.886;2022-08-19T03:22:19;16.00;99.90
11573;DHT22;5842;52.426;4.886;2022-08-19T03:24:46;16.00;99.90
11573;DHT22;5842;52.426;4.886;2022-08-19T03:27:13;16.00;99.90
11573;DHT22;5842;52.426;4.886;2022-08-19T03:29:40;16.00;99.90
11573;DHT22;5842;52.426;4.886;2022-08-19T03:32:07;15.90;99.90
11573;DHT22;5842;52.426;4.886;2022-08-19T03:34:36;15.90;99.90
11573;DHT22;5842;52.426;4.886;2022-08-19T03:37:08;15.90;99.90
11573;DHT22;5842;52.426;4.886;2022-08-19T03:39:38;15.90;99.90
11573;DHT22;5842;52.426;4.886;2022-08-19T03:42:06;15.90;99.90
11573;DHT22;5842;52.426;4.886;2022-08-19T03:44:33;16.00;99.90
11573;DHT22;5842;52.426;4.886;2022-08-19T03:47:02;15.90;99.90
11573;DHT22;5842;52.426;4.886;2022-08-19T03:49:31;16.00;99.90
11573;DHT22;5842;52.426;4.886;2022-08-19T03:52:01;16.00;99.90
11573;DHT22;5842;52.426;4.886;2022-08-19T03:54:32;16.00;99.90
11573;DHT22;5842;52.426;4.886;2022-08-19T03:57:00;16.00;99.90
11573;DHT22;5842;52.426;4.886;2022-08-19T03:59:31;16.00;99.90
11573;DHT22;5842;52.426;4.886;2022-08-19T04:02:04;16.00;99.90
11573;DHT22;5842;52.426;4.886;2022-08-19T04:04:34;16.00;99.90
11573;DHT22;5842;52.426;4.886;2022-08-19T04:07:01;16.00;99.90
11573;DHT22;5842;52.426;4.886;2022-08-19T04:09:28;16.00;99.90
11573;DHT22;5842;52.426;4.886;2022-08-19T04:11:57;16.00;99.90
11573;DHT22;5842;52.426;4.886;2022-08-19T04:14:28;15.90;99.90
11573;DHT22;5842;52.426;4.886;2022-08-19T04:16:56;16.00;99.90
11573;DHT22;5842;52.426;4.886;2022-08-19T04:19:23;16.00;99.90
11573;DHT22;5842;52.426;4.886;2022-08-19T04:21:53;16.00;99.90
11573;DHT22;5842;52.426;4.886;2022-08-19T04:24:21;16.00;99.90
11573;DHT22;5842;52.426;4.886;2022-08-19T04:26:49;16.00;99.90
11573;DHT22;5842;52.426;4.886;2022-08-19T04:29:20;16.00;99.90
11573;DHT22;5842;52.426;4.886;2022-08-19T04:31:51;16.00;99.90
11573;DHT22;5842;52.426;4.886;2022-08-19T04:34:20;16.10;99.90
11573;DHT22;5842;52.426;4.886;2022-08-19T04:36:49;16.00;99.90
11573;DHT22;5842;52.426;4.886;2022-08-19T04:39:19;16.10;99.90
11573;DHT22;5842;52.426;4.886;2022-08-19T04:41:47;16.10;99.90
11573;DHT22;5842;52.426;4.886;2022-08-19T04:44:34;16.10;99.90
11573;DHT22;5842;52.426;4.886;2022-08-19T04:47:02;16.10;99.90
11573;DHT22;5842;52.426;4.886;2022-08-19T04:49:31;16.10;99.90
11573;DHT22;5842;52.426;4.886;2022-08-19T04:51:58;16.20;99.90
11573;DHT22;5842;52.426;4.886;2022-08-19T04:54:25;16.20;99.90
11573;DHT22;5842;52.426;4.886;2022-08-19T04:56:53;16.20;99.90
11573;DHT22;5842;52.426;4.886;2022-08-19T04:59:20;16.20;99.90
11573;DHT22;5842;52.426;4.886;2022-08-19T05:01:49;16.30;99.90
11573;DHT22;5842;52.426;4.886;2022-08-19T05:04:18;16.40;99.90
11573;DHT22;5842;52.426;4.886;2022-08-19T05:06:47;16.50;99.90
11573;DHT22;5842;52.426;4.886;2022-08-19T05:09:15;16.60;99.90
11573;DHT22;5842;52.426;4.886;2022-08-19T05:11:43;16.70;99.90
11573;DHT22;5842;52.426;4.886;2022-08-19T05:14:11;16.70;99.90
11573;DHT22;5842;52.426;4.886;2022-08-19T05:16:39;16.80;99.90
11573;DHT22;5842;52.426;4.886;2022-08-19T05:19:08;16.80;99.90
11573;DHT22;5842;52.426;4.886;2022-08-19T05:21:53;16.90;99.90
11573;DHT22;5842;52.426;4.886;2022-08-19T05:24:46;17.00;99.90
11573;DHT22;5842;52.426;4.886;2022-08-19T05:27:13;17.10;99.90
11573;DHT22;5842;52.426;4.886;2022-08-19T05:29:40;17.20;99.90
11573;DHT22;5842;52.426;4.886;2022-08-19T05:32:07;17.30;99.90
11573;DHT22;5842;52.426;4.886;2022-08-19T05:34:38;17.40;99.90
11573;DHT22;5842;52.426;4.886;2022-08-19T05:37:05;17.50;99.90
11573;DHT22;5842;52.426;4.886;2022-08-19T05:39:34;17.60;99.90
11573;DHT22;5842;52.426;4.886;2022-08-19T05:42:03;17.80;99.90
11573;DHT22;5842;52.426;4.886;2022-08-19T05:44:33;17.80;99.90
11573;DHT22;5842;52.426;4.886;2022-08-19T05:47:02;17.90;99.90
11573;DHT22;5842;52.426;4.886;2022-08-19T05:49:30;18.10;99.90
11573;DHT22;5842;52.426;4.886;2022-08-19T05:52:01;18.20;99.90
11573;DHT22;5842;52.426;4.886;2022-08-19T05:54:32;18.30;99.90
11573;DHT22;5842;52.426;4.886;2022-08-19T05:57:01;18.40;99.90
11573;DHT22;5842;52.426;4.886;2022-08-19T05:59:31;18.50;99.90
11573;DHT22;5842;52.426;4.886;2022-08-19T06:02:01;18.70;99.90
11573;DHT22;5842;52.426;4.886;2022-08-19T06:04:28;18.80;99.90
11573;DHT22;5842;52.426;4.886;2022-08-19T06:06:55;19.00;99.90
11573;DHT22;5842;52.426;4.886;2022-08-19T06:09:25;19.10;99.90
11573;DHT22;5842;52.426;4.886;2022-08-19T06:11:54;19.20;99.90
11573;DHT22;5842;52.426;4.886;2022-08-19T06:14:29;19.30;99.90
11573;DHT22;5842;52.426;4.886;2022-08-19T06:16:57;19.40;99.90
11573;DHT22;5842;52.426;4.886;2022-08-19T06:19:25;19.60;99.90
11573;DHT22;5842;52.426;4.886;2022-08-19T06:21:56;19.70;99.90
11573;DHT22;5842;52.426;4.886;2022-08-19T06:24:27;19.80;99.90
11573;DHT22;5842;52.426;4.886;2022-08-19T06:26:56;20.00;99.90
11573;DHT22;5842;52.426;4.886;2022-08-19T06:29:24;20.10;99.90
11573;DHT22;5842;52.426;4.886;2022-08-19T06:31:55;20.40;99.90
11573;DHT22;5842;52.426;4.886;2022-08-19T06:34:23;20.70;99.90
11573;DHT22;5842;52.426;4.886;2022-08-19T06:36:53;20.90;99.90
11573;DHT22;5842;52.426;4.886;2022-08-19T06:39:22;20.90;99.90
11573;DHT22;5842;52.426;4.886;2022-08-19T06:41:54;20.90;99.90
11573;DHT22;5842;52.426;4.886;2022-08-19T06:44:23;20.90;99.90
11573;DHT22;5842;52.426;4.886;2022-08-19T06:46:51;20.80;99.90
11573;DHT22;5842;52.426;4.886;2022-08-19T06:49:18;20.80;99.90
11573;DHT22;5842;52.426;4.886;2022-08-19T06:51:47;20.70;99.90
11573;DHT22;5842;52.426;4.886;2022-08-19T06:54:15;20.70;99.90
11573;DHT22;5842;52.426;4.886;2022-08-19T06:56:43;20.60;99.90
11573;DHT22;5842;52.426;4.886;2022-08-19T06:59:17;20.70;99.90
11573;DHT22;5842;52.426;4.886;2022-08-19T07:01:46;20.80;99.90
11573;DHT22;5842;52.426;4.886;2022-08-19T07:04:15;21.00;99.90
11573;DHT22;5842;52.426;4.886;2022-08-19T07:06:44;21.30;99.90
11573;DHT22;5842;52.426;4.886;2022-08-19T07:09:13;21.60;99.90
11573;DHT22;5842;52.426;4.886;2022-08-19T07:11:44;21.90;99.90
11573;DHT22;5842;52.426;4.886;2022-08-19T07:14:11;22.20;99.90
11573;DHT22;5842;52.426;4.886;2022-08-19T07:16:41;22.70;99.90
11573;DHT22;5842;52.426;4.886;2022-08-19T07:19:08;22.90;99.90
11573;DHT22;5842;52.426;4.886;2022-08-19T07:38:29;26.90;99.90
11573;DHT22;5842;52.426;4.886;2022-08-19T07:40:56;27.40;99.90
11573;DHT22;5842;52.426;4.886;2022-08-19T07:45:52;27.80;99.90
11573;DHT22;5842;52.426;4.886;2022-08-19T07:48:21;27.60;99.90
11573;DHT22;5842;52.426;4.886;2022-08-19T07:50:51;27.60;99.90
11573;DHT22;5842;52.426;4.886;2022-08-19T07:53:20;27.40;99.90
11573;DHT22;5842;52.426;4.886;2022-08-19T07:55:51;27.00;99.90
11573;DHT22;5842;52.426;4.886;2022-08-19T07:58:21;26.60;99.90
11573;DHT22;5842;52.426;4.886;2022-08-19T08:00:50;26.20;99.90
11573;DHT22;5842;52.426;4.886;2022-08-19T08:03:20;26.60;99.90
11573;DHT22;5842;52.426;4.886;2022-08-19T08:06:07;28.20;99.90
11573;DHT22;5842;52.426;4.886;2022-08-19T08:08:51;29.20;99.90
11573;DHT22;5842;52.426;4.886;2022-08-19T08:14:04;31.90;99.70
11573;DHT22;5842;52.426;4.886;2022-08-19T08:16:33;32.40;97.90
11573;DHT22;5842;52.426;4.886;2022-08-19T08:19:00;33.00;95.80
11573;DHT22;5842;52.426;4.886;2022-08-19T08:21:30;33.60;93.40
11573;DHT22;5842;52.426;4.886;2022-08-19T08:23:57;34.00;93.50
11573;DHT22;5842;52.426;4.886;2022-08-19T08:26:24;33.90;93.70
11573;DHT22;5842;52.426;4.886;2022-08-19T08:28:51;34.10;92.80
11573;DHT22;5842;52.426;4.886;2022-08-19T08:31:20;33.40;92.90
11573;DHT22;5842;52.426;4.886;2022-08-19T08:33:47;32.90;93.10
11573;DHT22;5842;52.426;4.886;2022-08-19T08:36:14;32.50;93.70
11573;DHT22;5842;52.426;4.886;2022-08-19T08:38:41;31.80;94.50
11573;DHT22;5842;52.426;4.886;2022-08-19T08:41:12;30.70;95.90
11573;DHT22;5842;52.426;4.886;2022-08-19T08:43:45;29.70;98.30
11573;DHT22;5842;52.426;4.886;2022-08-19T08:46:13;28.90;99.90
11573;DHT22;5842;52.426;4.886;2022-08-19T08:48:46;28.20;99.90
11573;DHT22;5842;52.426;4.886;2022-08-19T08:51:17;27.60;99.90
11573;DHT22;5842;52.426;4.886;2022-08-19T08:53:45;28.40;99.90
11573;DHT22;5842;52.426;4.886;2022-08-19T08:56:13;29.50;99.90
11573;DHT22;5842;52.426;4.886;2022-08-19T08:58:43;31.00;98.70
11573;DHT22;5842;52.426;4.886;2022-08-19T09:01:13;31.80;96.60
11573;DHT22;5842;52.426;4.886;2022-08-19T09:03:41;31.70;94.30
11573;DHT22;5842;52.426;4.886;2022-08-19T09:06:14;32.20;95.30
11573;DHT22;5842;52.426;4.886;2022-08-19T09:08:45;33.40;94.40
11573;DHT22;5842;52.426;4.886;2022-08-19T09:11:15;34.40;91.30
11573;DHT22;5842;52.426;4.886;2022-08-19T09:13:44;34.70;90.40
11573;DHT22;5842;52.426;4.886;2022-08-19T09:16:15;35.20;89.50
11573;DHT22;5842;52.426;4.886;2022-08-19T09:18:44;34.60;88.20
11573;DHT22;5842;52.426;4.886;2022-08-19T09:21:14;33.80;90.40
11573;DHT22;5842;52.426;4.886;2022-08-19T09:23:41;32.60;91.20
11573;DHT22;5842;52.426;4.886;2022-08-19T09:26:09;31.50;93.90
11573;DHT22;5842;52.426;4.886;2022-08-19T09:28:38;31.30;94.10
11573;DHT22;5842;52.426;4.886;2022-08-19T09:31:08;31.50;94.20
11573;DHT22;5842;52.426;4.886;2022-08-19T09:33:36;31.90;93.40
11573;DHT22;5842;52.426;4.886;2022-08-19T09:36:04;32.70;91.50
11573;DHT22;5842;52.426;4.886;2022-08-19T09:38:33;32.50;90.50
11573;DHT22;5842;52.426;4.886;2022-08-19T09:41:03;31.60;92.20
11573;DHT22;5842;52.426;4.886;2022-08-19T09:43:31;31.10;93.90
11573;DHT22;5842;52.426;4.886;2022-08-19T09:45:58;30.20;95.80
11573;DHT22;5842;52.426;4.886;2022-08-19T09:48:25;29.70;97.50
11573;DHT22;5842;52.426;4.886;2022-08-19T09:50:52;29.30;98.00
11573;DHT22;5842;52.426;4.886;2022-08-19T09:53:19;28.80;98.80
11573;DHT22;5842;52.426;4.886;2022-08-19T09:55:49;28.20;99.90
11573;DHT22;5842;52.426;4.886;2022-08-19T10:00:43;27.10;99.90
11573;DHT22;5842;52.426;4.886;2022-08-19T10:05:38;26.50;99.90
11573;DHT22;5842;52.426;4.886;2022-08-19T10:08:18;26.30;99.90
11573;DHT22;5842;52.426;4.886;2022-08-19T10:10:45;26.20;99.90
11573;DHT22;5842;52.426;4.886;2022-08-19T10:15:41;26.00;99.90
11573;DHT22;5842;52.426;4.886;2022-08-19T10:18:08;26.00;99.90
11573;DHT22;5842;52.426;4.886;2022-08-19T10:20:35;26.20;99.90
11573;DHT22;5842;52.426;4.886;2022-08-19T10:23:02;26.40;99.90
11573;DHT22;5842;52.426;4.886;2022-08-19T10:25:29;26.60;99.90
11573;DHT22;5842;52.426;4.886;2022-08-19T10:27:56;26.80;99.90
11573;DHT22;5842;52.426;4.886;2022-08-19T10:30:23;27.20;99.90
11573;DHT22;5842;52.426;4.886;2022-08-19T10:33:00;27.20;99.90
11573;DHT22;5842;52.426;4.886;2022-08-19T10:35:27;27.40;99.90
11573;DHT22;5842;52.426;4.886;2022-08-19T10:37:54;27.80;99.90
11573;DHT22;5842;52.426;4.886;2022-08-19T10:40:24;28.10;99.90
11573;DHT22;5842;52.426;4.886;2022-08-19T10:42:51;27.80;99.90
11573;DHT22;5842;52.426;4.886;2022-08-19T10:45:18;27.80;99.90
11573;DHT22;5842;52.426;4.886;2022-08-19T10:47:49;27.80;99.90
11573;DHT22;5842;52.426;4.886;2022-08-19T10:50:17;27.70;99.90
11573;DHT22;5842;52.426;4.886;2022-08-19T10:53:03;27.60;99.90
11573;DHT22;5842;52.426;4.886;2022-08-19T10:55:30;27.30;99.90
11573;DHT22;5842;52.426;4.886;2022-08-19T10:58:15;27.20;99.90
11573;DHT22;5842;52.426;4.886;2022-08-19T11:00:42;26.60;99.90
11573;DHT22;5842;52.426;4.886;2022-08-19T11:05:38;25.60;99.90
11573;DHT22;5842;52.426;4.886;2022-08-19T11:08:06;25.20;99.90
11573;DHT22;5842;52.426;4.886;2022-08-19T11:13:04;24.90;99.90
11573;DHT22;5842;52.426;4.886;2022-08-19T11:15:31;24.80;99.90
11573;DHT22;5842;52.426;4.886;2022-08-19T11:18:01;25.00;99.90
11573;DHT22;5842;52.426;4.886;2022-08-19T11:20:28;25.10;99.90
11573;DHT22;5842;52.426;4.886;2022-08-19T11:22:58;25.20;99.90
11573;DHT22;5842;52.426;4.886;2022-08-19T11:25:25;25.20;99.90
11573;DHT22;5842;52.426;4.886;2022-08-19T11:27:51;25.20;99.90
11573;DHT22;5842;52.426;4.886;2022-08-19T11:30:18;25.40;99.90
11573;DHT22;5842;52.426;4.886;2022-08-19T11:32:45;25.60;99.90
11573;DHT22;5842;52.426;4.886;2022-08-19T11:35:13;25.90;99.90
11573;DHT22;5842;52.426;4.886;2022-08-19T11:37:40;26.00;99.90
11573;DHT22;5842;52.426;4.886;2022-08-19T11:40:09;26.20;99.90
11573;DHT22;5842;52.426;4.886;2022-08-19T11:42:36;26.50;99.90
11573;DHT22;5842;52.426;4.886;2022-08-19T11:45:21;26.40;99.90
11573;DHT22;5842;52.426;4.886;2022-08-19T11:47:48;26.50;99.90
11573;DHT22;5842;52.426;4.886;2022-08-19T11:50:15;26.50;99.90
11573;DHT22;5842;52.426;4.886;2022-08-19T11:52:43;26.50;99.90
11573;DHT22;5842;52.426;4.886;2022-08-19T11:55:11;26.60;99.90
11573;DHT22;5842;52.426;4.886;2022-08-19T11:57:38;26.60;99.90
11573;DHT22;5842;52.426;4.886;2022-08-19T12:00:06;26.80;99.90
11573;DHT22;5842;52.426;4.886;2022-08-19T12:02:34;26.90;99.90
11573;DHT22;5842;52.426;4.886;2022-08-19T12:05:01;27.20;99.90
11573;DHT22;5842;52.426;4.886;2022-08-19T12:07:28;27.60;99.90
11573;DHT22;5842;52.426;4.886;2022-08-19T12:09:58;27.90;99.90
11573;DHT22;5842;52.426;4.886;2022-08-19T12:12:27;28.20;99.90
11573;DHT22;5842;52.426;4.886;2022-08-19T12:14:54;28.70;99.90
11573;DHT22;5842;52.426;4.886;2022-08-19T12:17:23;29.10;99.90
11573;DHT22;5842;52.426;4.886;2022-08-19T12:19:51;28.80;99.90
11573;DHT22;5842;52.426;4.886;2022-08-19T12:22:18;28.80;99.90
11573;DHT22;5842;52.426;4.886;2022-08-19T12:24:46;28.70;99.90
11573;DHT22;5842;52.426;4.886;2022-08-19T12:27:13;28.50;99.90
11573;DHT22;5842;52.426;4.886;2022-08-19T12:29:41;28.40;99.90
11573;DHT22;5842;52.426;4.886;2022-08-19T12:32:08;28.40;99.90
11573;DHT22;5842;52.426;4.886;2022-08-19T12:34:35;28.50;99.90
11573;DHT22;5842;52.426;4.886;2022-08-19T12:37:03;28.30;99.90
11573;DHT22;5842;52.426;4.886;2022-08-19T12:39:33;28.10;99.90
11573;DHT22;5842;52.426;4.886;2022-08-19T12:42:00;28.00;99.90
11573;DHT22;5842;52.426;4.886;2022-08-19T12:44:27;27.90;99.90
11573;DHT22;5842;52.426;4.886;2022-08-19T12:46:55;27.70;99.90
11573;DHT22;5842;52.426;4.886;2022-08-19T12:49:23;27.70;99.90
11573;DHT22;5842;52.426;4.886;2022-08-19T12:51:50;27.60;99.90
11573;DHT22;5842;52.426;4.886;2022-08-19T12:54:17;27.90;99.90
11573;DHT22;5842;52.426;4.886;2022-08-19T12:56:45;28.20;99.90
11573;DHT22;5842;52.426;4.886;2022-08-19T12:59:12;28.40;99.90
11573;DHT22;5842;52.426;4.886;2022-08-19T13:01:41;28.50;99.90
11573;DHT22;5842;52.426;4.886;2022-08-19T13:04:10;28.60;99.90
11573;DHT22;5842;52.426;4.886;2022-08-19T13:06:37;28.70;99.90
11573;DHT22;5842;52.426;4.886;2022-08-19T13:09:04;28.90;99.90
11573;DHT22;5842;52.426;4.886;2022-08-19T13:11:31;28.90;99.90
11573;DHT22;5842;52.426;4.886;2022-08-19T13:13:59;28.70;99.90
11573;DHT22;5842;52.426;4.886;2022-08-19T13:16:26;28.40;99.90
11573;DHT22;5842;52.426;4.886;2022-08-19T13:18:53;28.00;99.90
11573;DHT22;5842;52.426;4.886;2022-08-19T13:21:23;28.00;99.90
11573;DHT22;5842;52.426;4.886;2022-08-19T13:23:51;28.20;99.90
11573;DHT22;5842;52.426;4.886;2022-08-19T13:26:18;28.10;99.90
11573;DHT22;5842;52.426;4.886;2022-08-19T13:28:45;28.20;99.90
11573;DHT22;5842;52.426;4.886;2022-08-19T13:31:29;28.00;99.90
11573;DHT22;5842;52.426;4.886;2022-08-19T13:34:14;27.90;99.90
11573;DHT22;5842;52.426;4.886;2022-08-19T13:36:42;27.60;99.90
11573;DHT22;5842;52.426;4.886;2022-08-19T13:39:09;27.70;99.90
11573;DHT22;5842;52.426;4.886;2022-08-19T13:41:36;27.80;99.90
11573;DHT22;5842;52.426;4.886;2022-08-19T13:44:04;27.70;99.90
11573;DHT22;5842;52.426;4.886;2022-08-19T13:46:31;27.90;99.90
11573;DHT22;5842;52.426;4.886;2022-08-19T13:48:58;28.10;99.90
11573;DHT22;5842;52.426;4.886;2022-08-19T13:51:25;28.10;99.90
11573;DHT22;5842;52.426;4.886;2022-08-19T13:53:53;27.90;99.90
11573;DHT22;5842;52.426;4.886;2022-08-19T13:56:20;27.70;99.90
11573;DHT22;5842;52.426;4.886;2022-08-19T13:58:47;27.70;99.90
11573;DHT22;5842;52.426;4.886;2022-08-19T14:01:18;27.70;99.90
11573;DHT22;5842;52.426;4.886;2022-08-19T14:03:45;27.70;99.90
11573;DHT22;5842;52.426;4.886;2022-08-19T14:06:12;27.90;99.90
11573;DHT22;5842;52.426;4.886;2022-08-19T14:08:39;28.10;99.90
11573;DHT22;5842;52.426;4.886;2022-08-19T14:11:08;28.30;99.90
11573;DHT22;5842;52.426;4.886;2022-08-19T14:13:35;28.40;99.90
11573;DHT22;5842;52.426;4.886;2022-08-19T14:16:05;28.50;99.90
11573;DHT22;5842;52.426;4.886;2022-08-19T14:18:32;28.50;99.90
11573;DHT22;5842;52.426;4.886;2022-08-19T14:20:59;28.50;99.90
11573;DHT22;5842;52.426;4.886;2022-08-19T14:23:26;28.70;99.90
11573;DHT22;5842;52.426;4.886;2022-08-19T14:25:53;28.70;99.90
11573;DHT22;5842;52.426;4.886;2022-08-19T14:28:30;28.50;99.90
11573;DHT22;5842;52.426;4.886;2022-08-19T14:30:57;28.20;99.90
11573;DHT22;5842;52.426;4.886;2022-08-19T14:33:24;28.20;99.90
11573;DHT22;5842;52.426;4.886;2022-08-19T14:35:51;28.20;99.90
11573;DHT22;5842;52.426;4.886;2022-08-19T14:38:18;28.10;99.90
11573;DHT22;5842;52.426;4.886;2022-08-19T14:40:45;27.90;99.90
11573;DHT22;5842;52.426;4.886;2022-08-19T14:43:12;27.80;99.90
11573;DHT22;5842;52.426;4.886;2022-08-19T14:45:44;27.60;99.90
11573;DHT22;5842;52.426;4.886;2022-08-19T14:48:11;27.50;99.90
11573;DHT22;5842;52.426;4.886;2022-08-19T14:50:38;27.30;99.90
11573;DHT22;5842;52.426;4.886;2022-08-19T14:53:05;27.00;99.90
11573;DHT22;5842;52.426;4.886;2022-08-19T14:55:33;26.90;99.90
11573;DHT22;5842;52.426;4.886;2022-08-19T14:58:00;26.80;99.90
11573;DHT22;5842;52.426;4.886;2022-08-19T15:00:27;26.80;99.90
11573;DHT22;5842;52.426;4.886;2022-08-19T15:02:56;26.80;99.90
11573;DHT22;5842;52.426;4.886;2022-08-19T15:05:24;26.90;99.90
11573;DHT22;5842;52.426;4.886;2022-08-19T15:07:52;26.90;99.90
11573;DHT22;5842;52.426;4.886;2022-08-19T15:10:19;26.80;99.90
11573;DHT22;5842;52.426;4.886;2022-08-19T15:12:49;26.90;99.90
11573;DHT22;5842;52.426;4.886;2022-08-19T15:15:16;26.90;99.90
11573;DHT22;5842;52.426;4.886;2022-08-19T15:17:44;26.80;99.90
11573;DHT22;5842;52.426;4.886;2022-08-19T15:20:14;26.60;99.90
11573;DHT22;5842;52.426;4.886;2022-08-19T15:22:41;26.20;99.90
11573;DHT22;5842;52.426;4.886;2022-08-19T15:25:09;25.90;99.90
11573;DHT22;5842;52.426;4.886;2022-08-19T15:30:04;25.50;99.90
11573;DHT22;5842;52.426;4.886;2022-08-19T15:35:00;25.10;99.90
11573;DHT22;5842;52.426;4.886;2022-08-19T15:37:29;25.00;99.90
11573;DHT22;5842;52.426;4.886;2022-08-19T15:39:56;24.90;99.90
11573;DHT22;5842;52.426;4.886;2022-08-19T15:42:23;24.90;99.90
11573;DHT22;5842;52.426;4.886;2022-08-19T15:47:18;24.70;99.90
11573;DHT22;5842;52.426;4.886;2022-08-19T15:49:45;24.70;99.90
11573;DHT22;5842;52.426;4.886;2022-08-19T15:52:12;24.60;99.90
11573;DHT22;5842;52.426;4.886;2022-08-19T15:54:41;24.60;99.90
11573;DHT22;5842;52.426;4.886;2022-08-19T15:57:08;24.60;99.90
11573;DHT22;5842;52.426;4.886;2022-08-19T15:59:52;24.70;99.90
11573;DHT22;5842;52.426;4.886;2022-08-19T16:02:36;24.70;99.90
11573;DHT22;5842;52.426;4.886;2022-08-19T16:05:22;24.80;99.90
11573;DHT22;5842;52.426;4.886;2022-08-19T16:08:06;24.70;99.90
11573;DHT22;5842;52.426;4.886;2022-08-19T16:10:38;24.60;99.90
11573;DHT22;5842;52.426;4.886;2022-08-19T16:13:05;24.40;99.90
11573;DHT22;5842;52.426;4.886;2022-08-19T16:15:35;24.20;99.90
11573;DHT22;5842;52.426;4.886;2022-08-19T16:18:02;24.00;99.90
11573;DHT22;5842;52.426;4.886;2022-08-19T16:20:30;23.80;99.90
11573;DHT22;5842;52.426;4.886;2022-08-19T16:25:28;23.40;99.90
11573;DHT22;5842;52.426;4.886;2022-08-19T16:27:57;23.30;99.90
11573;DHT22;5842;52.426;4.886;2022-08-19T16:30:24;23.40;99.90
11573;DHT22;5842;52.426;4.886;2022-08-19T16:32:52;23.40;99.90
11573;DHT22;5842;52.426;4.886;2022-08-19T16:35:19;23.40;99.90
11573;DHT22;5842;52.426;4.886;2022-08-19T16:37:46;23.50;99.90
11573;DHT22;5842;52.426;4.886;2022-08-19T16:40:13;23.50;99.90